KARB/ARB METAR and TAF weather

Enter ICAO airport designator
Station Type Date Time Source
KARB METAR 2022/08/12 13:53 UTC NOAA

KARB 121353Z 02006KT 10SM CLR 20/12 A3024 RMK AO2 SLP237 T02000117


Station Type Date Time Source
KARB Decoded METAR 2022/08/12 13:53 UTC NOAA

ANN ARBOR MUNICIPAL AIRPORT, MI, United States (KARB) 42-13N 083-45W 251M
Aug 12, 2022 - 09:53 AM EDT / 2022.08.12 1353 UTC
Wind: from the NNE (020 degrees) at 7 MPH (6 KT):0
Visibility: 10 mile(s):0
Sky conditions: clear
Temperature: 68.0 F (20.0 C)
Dew Point: 53.1 F (11.7 C)
Relative Humidity: 58%
Pressure (altimeter): 30.24 in. Hg (1024 hPa)
ob: KARB 121353Z 02006KT 10SM CLR 20/12 A3024 RMK AO2 SLP237 T02000117
cycle: 14

Station Type Date Time Source
KARB TAF UTC NOAA

Error!

Example: see airport list